createdAt,value
2023-01-13T00:04:11.251Z,9.40
2023-01-13T00:09:13.216Z,9.93
2023-01-13T00:14:15.079Z,10.85
2023-01-13T00:19:16.897Z,8.30
2023-01-13T00:24:18.850Z,9.47
2023-01-13T00:29:20.818Z,6.80
2023-01-13T00:34:22.826Z,8.05
2023-01-13T00:39:24.729Z,9.70
2023-01-13T00:44:26.604Z,8.63
2023-01-13T00:49:28.435Z,6.67
2023-01-13T00:54:30.309Z,7.73
2023-01-13T00:59:32.145Z,9.43
2023-01-13T01:04:34.090Z,7.73
2023-01-13T01:09:35.969Z,6.82
2023-01-13T01:14:37.808Z,8.23
2023-01-13T01:19:39.791Z,8.27
2023-01-13T01:24:41.640Z,8.20
2023-01-13T01:29:43.507Z,7.13
2023-01-13T01:34:45.358Z,6.83
2023-01-13T01:39:47.295Z,7.87
2023-01-13T01:45:13.819Z,9.18
2023-01-13T01:50:15.866Z,7.40
2023-01-13T01:55:20.003Z,6.40
2023-01-13T02:00:22.014Z,7.50
2023-01-13T02:05:24.043Z,8.00
2023-01-13T02:10:27.009Z,7.88
2023-01-13T02:15:40.676Z,7.57
2023-01-13T02:21:00.938Z,6.97
2023-01-13T02:26:20.621Z,7.38
2023-01-13T02:31:22.775Z,7.45
2023-01-13T02:36:39.595Z,10.10
2023-01-13T02:41:49.715Z,6.93
2023-01-13T02:47:16.287Z,9.15
2023-01-13T02:52:28.529Z,6.82
2023-01-13T02:57:30.731Z,6.97
2023-01-13T03:02:32.732Z,7.65
2023-01-13T03:08:01.267Z,7.40
2023-01-13T03:13:12.849Z,7.25
2023-01-13T03:18:29.100Z,5.72
2023-01-13T03:23:50.550Z,9.13
2023-01-13T03:28:54.822Z,7.60
2023-01-13T03:34:02.563Z,5.78
2023-01-13T03:39:08.261Z,7.05
2023-01-13T03:44:17.993Z,6.82
2023-01-13T03:49:21.361Z,7.38
2023-01-13T03:54:23.334Z,8.18
2023-01-13T03:59:29.301Z,4.80
2023-01-13T04:04:32.401Z,8.23
2023-01-13T04:09:40.122Z,6.15
2023-01-13T04:14:42.112Z,5.85
2023-01-13T04:19:43.955Z,10.70
2023-01-13T04:24:45.778Z,5.23
2023-01-13T04:29:47.799Z,5.63
2023-01-13T04:34:49.701Z,7.65
2023-01-13T04:39:51.565Z,7.43
2023-01-13T04:44:53.375Z,7.68
2023-01-13T04:49:55.287Z,10.33
2023-01-13T04:54:57.190Z,7.55
2023-01-13T04:59:59.049Z,6.65
2023-01-13T05:05:00.970Z,8.90
2023-01-13T05:10:03.051Z,8.70
2023-01-13T05:15:06.388Z,7.93
2023-01-13T05:20:08.966Z,8.50
2023-01-13T05:25:12.140Z,6.68
2023-01-13T05:30:15.209Z,6.78
2023-01-13T05:35:17.150Z,6.53
2023-01-13T05:40:19.068Z,7.25
2023-01-13T05:45:20.927Z,7.53
2023-01-13T05:50:22.816Z,6.27
2023-01-13T05:55:24.643Z,7.63
2023-01-13T06:00:26.587Z,7.17
2023-01-13T06:05:28.821Z,7.20
2023-01-13T06:10:30.689Z,8.40
2023-01-13T06:15:32.661Z,7.60
2023-01-13T06:20:34.539Z,7.22
2023-01-13T06:26:04.386Z,6.37
2023-01-13T06:31:07.250Z,7.32
2023-01-13T06:36:25.715Z,7.57
2023-01-13T06:41:27.555Z,6.80
2023-01-13T06:46:29.319Z,8.90
2023-01-13T06:51:31.208Z,8.93
2023-01-13T06:56:33.055Z,5.87
2023-01-13T07:01:34.964Z,8.37
2023-01-13T07:06:36.893Z,7.28
2023-01-13T07:11:38.741Z,8.23
2023-01-13T07:16:40.622Z,7.17
2023-01-13T07:21:42.539Z,9.05
2023-01-13T07:26:44.342Z,8.70
2023-01-13T07:31:48.232Z,10.13
2023-01-13T07:36:51.613Z,6.80
2023-01-13T07:41:53.419Z,7.03
2023-01-13T07:46:55.327Z,6.37
2023-01-13T07:51:57.165Z,7.07
2023-01-13T07:56:58.935Z,7.27
2023-01-13T08:02:00.973Z,5.13
2023-01-13T08:07:03.936Z,6.45
2023-01-13T08:12:05.939Z,6.68
2023-01-13T08:17:08.703Z,7.10
2023-01-13T08:27:12.114Z,7.13
2023-01-13T08:32:14.194Z,6.33
2023-01-13T08:37:16.124Z,7.55
2023-01-13T08:42:18.011Z,7.37
2023-01-13T08:47:19.992Z,7.43
2023-01-13T08:52:22.162Z,10.02
2023-01-13T08:57:24.112Z,7.75
2023-01-13T09:02:26.317Z,8.90
2023-01-13T09:07:28.193Z,9.02
2023-01-13T09:12:31.824Z,7.23
2023-01-13T09:17:33.755Z,8.38
2023-01-13T09:22:35.562Z,7.88
2023-01-13T09:27:37.402Z,8.10
2023-01-13T09:32:39.389Z,10.13
2023-01-13T09:37:41.279Z,10.03
2023-01-13T09:42:54.071Z,7.23
2023-01-13T09:48:16.769Z,9.38
2023-01-13T09:53:28.505Z,7.73
2023-01-13T09:58:30.479Z,8.80
2023-01-13T10:03:33.298Z,8.80
2023-01-13T10:08:37.899Z,10.63
2023-01-13T10:13:39.720Z,9.63
2023-01-13T10:18:57.622Z,10.50
2023-01-13T10:24:18.065Z,8.77
2023-01-13T10:29:24.530Z,11.25
2023-01-13T10:34:27.346Z,11.55
2023-01-13T10:39:34.865Z,8.23
2023-01-13T10:44:52.793Z,8.27
2023-01-13T10:50:03.868Z,7.68
2023-01-13T10:55:23.760Z,11.57
2023-01-13T11:00:30.337Z,8.98
2023-01-13T11:05:32.124Z,13.00
2023-01-13T11:10:33.949Z,10.23
2023-01-13T11:15:41.742Z,9.63
2023-01-13T11:20:44.353Z,9.75
2023-01-13T11:25:48.943Z,8.75
2023-01-13T11:31:14.828Z,9.73
2023-01-13T11:36:31.778Z,11.38
2023-01-13T11:41:48.744Z,9.50
2023-01-13T11:46:50.709Z,7.20
2023-01-13T11:52:00.880Z,5.35
2023-01-13T11:57:17.794Z,13.18
2023-01-13T12:02:19.559Z,8.88
2023-01-13T12:07:28.553Z,8.37
2023-01-13T12:12:48.815Z,11.55
2023-01-13T12:17:56.677Z,13.20
2023-01-13T12:23:01.365Z,9.23
2023-01-13T12:28:26.478Z,7.20
2023-01-13T12:33:37.508Z,12.32
2023-01-13T12:39:02.699Z,9.45
2023-01-13T12:44:04.732Z,10.27
2023-01-13T12:49:07.006Z,9.65
2023-01-13T12:54:37.855Z,9.63
2023-01-13T12:59:39.723Z,13.82
2023-01-13T13:04:42.631Z,7.47
2023-01-13T13:09:47.987Z,7.97
2023-01-13T13:14:49.842Z,10.15
2023-01-13T13:19:51.954Z,10.07
2023-01-13T13:24:56.748Z,12.75
2023-01-13T13:30:02.142Z,9.55
2023-01-13T13:35:33.735Z,10.27
2023-01-13T13:40:41.497Z,12.50
2023-01-13T13:45:51.133Z,13.35
2023-01-13T13:50:57.214Z,12.75
2023-01-13T13:56:00.391Z,12.55
2023-01-13T14:01:06.188Z,14.57
2023-01-13T14:06:16.963Z,12.57
2023-01-13T14:11:29.577Z,13.65
2023-01-13T14:16:33.432Z,18.02
2023-01-13T14:21:36.263Z,15.25
2023-01-13T14:26:38.189Z,13.30
2023-01-13T14:31:42.543Z,14.85
2023-01-13T14:36:46.523Z,16.88
2023-01-13T14:41:49.492Z,15.40
2023-01-13T14:46:52.072Z,14.88
2023-01-13T14:51:54.014Z,15.18
2023-01-13T14:57:29.739Z,10.90
2023-01-13T15:02:32.685Z,17.70
2023-01-13T15:07:35.469Z,17.50
2023-01-13T15:12:38.252Z,15.85
2023-01-13T15:17:40.471Z,17.98
2023-01-13T15:22:42.539Z,19.27
2023-01-13T15:27:44.798Z,19.52
2023-01-13T15:32:46.648Z,17.02
2023-01-13T15:37:48.944Z,12.37
2023-01-13T15:42:50.812Z,19.40
2023-01-13T15:47:52.612Z,18.67
2023-01-13T15:52:54.435Z,15.07
2023-01-13T15:57:56.270Z,15.73
2023-01-13T16:02:58.320Z,22.53
2023-01-13T16:08:00.254Z,18.42
2023-01-13T16:13:02.172Z,17.70
2023-01-13T16:18:04.538Z,15.60
2023-01-13T16:23:06.497Z,17.40
2023-01-13T16:28:13.044Z,18.00
2023-01-13T16:33:14.964Z,21.55
2023-01-13T16:38:17.196Z,17.88
2023-01-13T16:43:19.215Z,18.73
2023-01-13T16:48:21.168Z,18.80
2023-01-13T16:53:22.984Z,16.23
2023-01-13T16:58:24.930Z,18.87
2023-01-13T17:03:26.921Z,20.47
2023-01-13T17:08:29.188Z,20.63
2023-01-13T17:13:31.020Z,23.27
2023-01-13T17:18:32.922Z,22.80
2023-01-13T17:23:34.754Z,23.10
2023-01-13T17:28:36.674Z,22.17
2023-01-13T17:33:38.602Z,22.33
2023-01-13T17:38:40.503Z,18.35
2023-01-13T17:43:42.432Z,15.77
2023-01-13T17:48:45.449Z,20.63
2023-01-13T17:53:47.376Z,19.88
2023-01-13T17:58:49.194Z,15.50
2023-01-13T18:03:51.343Z,13.20
2023-01-13T18:08:54.269Z,19.48
2023-01-13T18:13:56.596Z,21.95
2023-01-13T18:18:58.863Z,20.33
2023-01-13T18:24:01.641Z,20.00
2023-01-13T18:29:03.571Z,22.20
2023-01-13T18:34:06.060Z,20.87
2023-01-13T18:39:07.953Z,24.15
2023-01-13T18:44:09.929Z,15.27
2023-01-13T18:49:11.778Z,22.48
2023-01-13T18:54:13.730Z,16.80
2023-01-13T18:59:16.245Z,23.87
2023-01-13T19:09:21.566Z,20.48
2023-01-13T19:14:23.546Z,22.13
2023-01-13T19:19:25.403Z,16.88
2023-01-13T19:24:28.500Z,20.63
2023-01-13T19:29:31.484Z,18.75
2023-01-13T19:34:34.451Z,22.90
2023-01-13T19:39:36.452Z,14.33
2023-01-13T19:44:38.275Z,17.58
2023-01-13T19:49:40.172Z,18.13
2023-01-13T19:54:44.851Z,19.02
2023-01-13T19:59:46.638Z,19.85
2023-01-13T20:04:48.637Z,13.13
2023-01-13T20:09:50.949Z,15.65
2023-01-13T20:14:53.115Z,17.77
2023-01-13T20:19:55.119Z,17.98
2023-01-13T20:24:56.953Z,13.93
2023-01-13T20:29:58.820Z,15.70
2023-01-13T20:35:00.676Z,17.30
2023-01-13T20:40:02.518Z,16.40
2023-01-13T20:50:07.759Z,17.67
2023-01-13T21:00:12.033Z,17.00
2023-01-13T21:05:14.041Z,21.00
2023-01-13T21:10:16.114Z,13.77
2023-01-13T21:15:18.041Z,15.57
2023-01-13T21:20:20.059Z,17.90
2023-01-13T21:25:21.900Z,11.48
2023-01-13T21:30:23.961Z,11.00
2023-01-13T21:35:26.277Z,17.75
2023-01-13T21:40:28.185Z,17.17
2023-01-13T21:45:30.133Z,16.03
2023-01-13T21:50:31.969Z,13.18
2023-01-13T21:55:34.485Z,17.07
2023-01-13T22:05:37.961Z,24.27
2023-01-13T22:10:39.854Z,16.83
2023-01-13T22:15:41.903Z,18.17
2023-01-13T22:20:43.860Z,20.45
2023-01-13T22:25:45.813Z,19.90
2023-01-13T22:30:47.735Z,18.70
2023-01-13T22:35:55.166Z,19.47
2023-01-13T22:41:00.567Z,17.20
2023-01-13T22:46:06.657Z,17.88
2023-01-13T22:51:15.839Z,17.92
2023-01-13T22:56:20.284Z,21.83
2023-01-13T23:01:22.379Z,18.48
2023-01-13T23:06:25.156Z,19.35
2023-01-13T23:16:29.701Z,16.08
2023-01-13T23:21:33.793Z,17.13
2023-01-13T23:26:35.841Z,17.55
2023-01-13T23:31:38.183Z,20.45
2023-01-13T23:36:40.123Z,15.80
2023-01-13T23:41:41.969Z,21.10
2023-01-13T23:46:43.839Z,16.90
2023-01-13T23:51:45.674Z,14.43
2023-01-13T23:56:49.368Z,14.57
